createdAt,value
2022-07-29T00:00:00.437Z,49.39
2022-07-29T00:02:30.798Z,49.66
2022-07-29T00:04:57.494Z,49.70
2022-07-29T00:07:24.141Z,49.75
2022-07-29T00:09:52.502Z,49.59
2022-07-29T00:12:25.121Z,49.80
2022-07-29T00:14:54.434Z,49.78
2022-07-29T00:17:21.185Z,49.76
2022-07-29T00:19:47.915Z,49.00
2022-07-29T00:22:15.104Z,49.59
2022-07-29T00:24:42.048Z,49.90
2022-07-29T00:27:08.810Z,49.30
2022-07-29T00:29:35.668Z,49.80
2022-07-29T00:32:03.415Z,50.31
2022-07-29T00:34:49.064Z,50.09
2022-07-29T00:37:15.982Z,50.04
2022-07-29T00:39:42.694Z,50.07
2022-07-29T00:42:10.216Z,50.18
2022-07-29T00:44:42.718Z,50.29
2022-07-29T00:47:10.930Z,50.23
2022-07-29T00:49:39.623Z,50.41
2022-07-29T00:52:07.643Z,50.39
2022-07-29T00:54:35.744Z,50.23
2022-07-29T00:57:09.173Z,51.30
2022-07-29T00:59:36.037Z,50.88
2022-07-29T01:02:05.738Z,51.02
2022-07-29T01:04:33.265Z,51.34
2022-07-29T01:07:02.621Z,51.05
2022-07-29T01:09:42.114Z,50.85
2022-07-29T01:12:22.483Z,51.27
2022-07-29T01:14:50.585Z,50.77
2022-07-29T01:17:35.651Z,50.83
2022-07-29T01:20:31.576Z,50.86
2022-07-29T01:23:08.053Z,51.01
2022-07-29T01:25:56.009Z,50.37
2022-07-29T01:29:00.578Z,50.69
2022-07-29T01:31:59.606Z,50.58
2022-07-29T01:34:49.894Z,50.69
2022-07-29T01:37:25.264Z,49.96
2022-07-29T01:39:55.552Z,50.56
2022-07-29T01:42:33.308Z,50.47
2022-07-29T01:45:20.667Z,50.24
2022-07-29T01:48:15.316Z,50.39
2022-07-29T01:51:22.507Z,50.29
2022-07-29T01:54:16.737Z,50.66
2022-07-29T01:56:46.387Z,50.38
2022-07-29T01:59:13.520Z,50.24
2022-07-29T02:01:42.391Z,50.47
2022-07-29T02:04:12.161Z,50.57
2022-07-29T02:07:01.784Z,50.93
2022-07-29T02:09:30.537Z,50.62
2022-07-29T02:11:58.598Z,50.46
2022-07-29T02:14:28.032Z,51.10
2022-07-29T02:16:59.915Z,51.10
2022-07-29T02:19:28.825Z,50.73
2022-07-29T02:21:59.044Z,50.61
2022-07-29T02:24:27.481Z,50.65
2022-07-29T02:26:57.183Z,50.82
2022-07-29T02:29:27.446Z,50.86
2022-07-29T02:31:56.289Z,50.87
2022-07-29T02:34:24.517Z,50.69
2022-07-29T02:36:52.769Z,51.21
2022-07-29T02:39:20.735Z,50.89
2022-07-29T02:41:56.402Z,50.97
2022-07-29T02:44:27.329Z,51.00
2022-07-29T02:47:23.609Z,51.05
2022-07-29T02:49:53.668Z,50.68
2022-07-29T02:52:52.963Z,51.35
2022-07-29T02:55:38.488Z,51.61
2022-07-29T02:58:23.762Z,51.86
2022-07-29T03:00:52.897Z,51.95
2022-07-29T03:03:21.575Z,52.00
2022-07-29T03:05:48.423Z,52.16
2022-07-29T03:08:16.322Z,52.24
2022-07-29T03:10:46.635Z,52.52
2022-07-29T03:13:14.325Z,52.60
2022-07-29T03:15:44.694Z,52.60
2022-07-29T03:18:12.005Z,53.26
2022-07-29T03:20:40.053Z,53.57
2022-07-29T03:23:06.806Z,53.91
2022-07-29T03:25:33.612Z,53.90
2022-07-29T03:28:00.209Z,53.37
2022-07-29T03:30:26.971Z,54.58
2022-07-29T03:32:54.473Z,54.64
2022-07-29T03:35:23.858Z,54.53
2022-07-29T03:37:50.689Z,54.40
2022-07-29T03:40:24.098Z,54.85
2022-07-29T03:42:54.324Z,55.31
2022-07-29T03:45:22.802Z,54.52
2022-07-29T03:48:00.979Z,54.37
2022-07-29T03:50:29.973Z,55.07
2022-07-29T03:52:56.758Z,54.26
2022-07-29T03:55:23.603Z,54.66
2022-07-29T03:57:51.475Z,54.33
2022-07-29T04:00:18.334Z,54.92
2022-07-29T04:02:49.740Z,55.01
2022-07-29T04:05:17.197Z,55.38
2022-07-29T04:07:51.857Z,55.06
2022-07-29T04:10:30.083Z,55.84
2022-07-29T04:12:59.560Z,56.17
2022-07-29T04:15:26.384Z,55.85
2022-07-29T04:17:58.874Z,56.49
2022-07-29T04:20:27.977Z,55.79
2022-07-29T04:22:54.711Z,56.13
2022-07-29T04:25:21.726Z,54.74
2022-07-29T04:28:03.466Z,54.50
2022-07-29T04:30:32.319Z,54.53
2022-07-29T04:32:59.571Z,55.02
2022-07-29T04:35:26.295Z,54.49
2022-07-29T04:37:52.863Z,54.74
2022-07-29T04:40:20.090Z,54.39
2022-07-29T04:42:47.785Z,54.01
2022-07-29T04:45:15.395Z,54.04
2022-07-29T04:47:43.119Z,54.82
2022-07-29T04:50:10.865Z,58.74
2022-07-29T04:52:37.738Z,64.09
2022-07-29T04:55:06.289Z,66.79
2022-07-29T04:57:34.437Z,68.83
2022-07-29T05:00:01.076Z,70.40
2022-07-29T05:02:27.737Z,70.72
2022-07-29T05:04:54.468Z,70.88
2022-07-29T05:07:21.290Z,69.17
2022-07-29T05:09:48.190Z,68.90
2022-07-29T05:12:15.002Z,67.75
2022-07-29T05:14:41.661Z,66.85
2022-07-29T05:17:08.359Z,65.26
2022-07-29T05:19:39.557Z,64.69
2022-07-29T05:22:07.070Z,64.42
2022-07-29T05:24:33.761Z,64.62
2022-07-29T05:27:00.798Z,62.97
2022-07-29T05:29:43.083Z,62.13
2022-07-29T05:32:13.017Z,62.68
2022-07-29T05:34:50.344Z,60.54
2022-07-29T05:37:19.978Z,60.24
2022-07-29T05:39:48.981Z,59.45
2022-07-29T05:42:17.555Z,57.73
2022-07-29T05:44:44.352Z,56.28
2022-07-29T05:47:11.005Z,53.99
2022-07-29T05:49:37.645Z,51.70
2022-07-29T05:52:04.608Z,50.02
2022-07-29T05:54:31.638Z,47.96
2022-07-29T05:56:58.290Z,47.83
2022-07-29T05:59:29.865Z,47.18
2022-07-29T06:01:58.424Z,46.69
2022-07-29T06:04:25.699Z,47.33
2022-07-29T06:06:52.613Z,46.60
2022-07-29T06:09:21.820Z,44.67
2022-07-29T06:11:48.482Z,43.68
2022-07-29T06:14:16.151Z,44.09
2022-07-29T06:16:44.073Z,43.09
2022-07-29T06:19:10.819Z,42.39
2022-07-29T06:21:38.591Z,42.98
2022-07-29T06:24:08.915Z,42.08
2022-07-29T06:26:39.611Z,41.43
2022-07-29T06:29:07.485Z,42.55
2022-07-29T06:31:34.366Z,44.95
2022-07-29T06:34:01.360Z,42.82
2022-07-29T06:36:28.149Z,42.84
2022-07-29T06:38:54.825Z,41.95
2022-07-29T06:41:24.084Z,41.15
2022-07-29T06:43:55.269Z,40.21
2022-07-29T06:46:23.964Z,40.74
2022-07-29T06:48:51.934Z,40.69
2022-07-29T06:51:22.967Z,41.75
2022-07-29T06:54:00.119Z,40.92
2022-07-29T06:56:38.605Z,41.03
2022-07-29T06:59:08.099Z,42.67
2022-07-29T07:01:35.141Z,41.63
2022-07-29T07:04:01.878Z,41.58
2022-07-29T07:06:28.818Z,41.07
2022-07-29T07:08:55.507Z,40.60
2022-07-29T07:11:22.529Z,39.94
2022-07-29T07:13:49.591Z,39.25
2022-07-29T07:16:17.544Z,40.42
2022-07-29T07:18:46.448Z,40.04
2022-07-29T07:21:18.742Z,39.76
2022-07-29T07:23:46.821Z,39.36
2022-07-29T07:26:13.675Z,38.49
2022-07-29T07:28:40.781Z,38.95
2022-07-29T07:31:07.429Z,39.56
2022-07-29T07:33:34.172Z,39.70
2022-07-29T07:36:00.966Z,42.12
2022-07-29T07:38:27.987Z,43.00
2022-07-29T07:40:55.813Z,43.30
2022-07-29T07:43:23.014Z,43.94
2022-07-29T07:45:50.343Z,46.02
2022-07-29T07:48:17.109Z,44.96
2022-07-29T07:50:46.217Z,44.36
2022-07-29T07:53:13.097Z,44.45
2022-07-29T07:58:30.094Z,43.53
2022-07-29T08:00:56.775Z,43.08
2022-07-29T08:03:23.706Z,42.61
2022-07-29T08:05:52.925Z,43.28
2022-07-29T08:08:19.794Z,43.69
2022-07-29T08:11:02.204Z,44.77
2022-07-29T08:13:33.044Z,44.15
2022-07-29T08:16:02.395Z,43.90
2022-07-29T08:18:31.456Z,43.03
2022-07-29T08:20:58.942Z,43.60
2022-07-29T08:25:54.954Z,42.70
2022-07-29T08:28:22.067Z,42.71
2022-07-29T08:30:52.927Z,43.15
2022-07-29T08:33:19.553Z,43.23
2022-07-29T08:35:46.605Z,43.44
2022-07-29T08:38:13.304Z,42.57
2022-07-29T08:40:40.640Z,42.30
2022-07-29T08:43:09.383Z,42.08
2022-07-29T08:45:47.951Z,41.53
2022-07-29T08:48:23.487Z,41.33
2022-07-29T08:50:55.953Z,41.53
2022-07-29T08:53:25.788Z,41.28
2022-07-29T08:55:54.258Z,41.39
2022-07-29T08:58:23.301Z,41.60
2022-07-29T09:00:54.110Z,41.13
2022-07-29T09:03:25.514Z,40.14
2022-07-29T09:05:53.045Z,40.62
2022-07-29T09:08:21.184Z,40.17
2022-07-29T09:10:48.306Z,40.58
2022-07-29T09:13:15.554Z,40.27
2022-07-29T09:15:42.278Z,40.69
2022-07-29T09:18:20.630Z,40.93
2022-07-29T09:21:15.291Z,40.72
2022-07-29T09:23:42.771Z,40.54
2022-07-29T09:26:09.323Z,40.08
2022-07-29T09:28:43.230Z,39.90
2022-07-29T09:31:09.908Z,39.95
2022-07-29T09:33:37.427Z,40.57
2022-07-29T09:36:10.641Z,40.25
2022-07-29T09:38:38.420Z,40.66
2022-07-29T09:41:07.227Z,39.35
2022-07-29T09:43:35.839Z,39.77
2022-07-29T09:46:22.139Z,39.86
2022-07-29T09:49:17.887Z,39.62
2022-07-29T09:51:44.888Z,39.24
2022-07-29T09:54:46.029Z,39.32
2022-07-29T09:57:33.963Z,39.37
2022-07-29T10:00:12.293Z,38.35
2022-07-29T10:02:41.027Z,39.13
2022-07-29T10:05:21.785Z,39.50
2022-07-29T10:07:54.086Z,39.82
2022-07-29T10:10:29.720Z,37.90
2022-07-29T10:13:01.784Z,37.21
2022-07-29T10:15:44.243Z,36.76
2022-07-29T10:18:13.812Z,36.58
2022-07-29T10:20:44.092Z,36.40
2022-07-29T10:23:10.934Z,36.20
2022-07-29T10:25:37.899Z,35.95
2022-07-29T10:28:07.078Z,36.08
2022-07-29T10:30:33.822Z,35.85
2022-07-29T10:33:08.331Z,36.06
2022-07-29T10:35:47.372Z,35.43
2022-07-29T10:38:22.802Z,35.21
2022-07-29T10:41:26.639Z,35.37
2022-07-29T10:43:58.037Z,35.43
2022-07-29T10:46:26.053Z,35.56
2022-07-29T10:49:15.185Z,34.93
2022-07-29T10:51:51.485Z,34.76
2022-07-29T10:54:19.583Z,34.86
2022-07-29T10:56:47.808Z,34.45
2022-07-29T10:59:21.499Z,33.44
2022-07-29T11:01:53.548Z,33.61
2022-07-29T11:04:47.078Z,33.42
2022-07-29T11:07:17.659Z,35.94
2022-07-29T11:10:17.728Z,36.70
2022-07-29T11:12:50.645Z,36.47
2022-07-29T11:15:20.123Z,36.37
2022-07-29T11:17:59.635Z,36.95
2022-07-29T11:20:47.773Z,36.74
2022-07-29T11:23:33.505Z,36.57
2022-07-29T11:26:26.916Z,36.74
2022-07-29T11:28:56.954Z,36.00
2022-07-29T11:31:33.971Z,34.19
2022-07-29T11:34:28.106Z,34.41
2022-07-29T11:37:17.728Z,35.36
2022-07-29T11:40:02.328Z,37.49
2022-07-29T11:42:32.913Z,37.70
2022-07-29T11:45:41.189Z,36.83
2022-07-29T11:48:29.937Z,36.95
2022-07-29T11:50:50.817Z,37.44
2022-07-29T11:53:18.026Z,37.33
2022-07-29T11:58:34.092Z,37.08
2022-07-29T12:01:05.508Z,36.08
2022-07-29T12:03:35.362Z,35.85
2022-07-29T12:06:04.518Z,35.78
2022-07-29T12:07:02.363Z,36.60
2022-07-29T12:08:41.915Z,34.66
2022-07-29T12:11:17.022Z,34.22
2022-07-29T12:13:45.385Z,34.29
2022-07-29T12:16:14.774Z,34.14
2022-07-29T12:18:43.730Z,34.26
2022-07-29T12:21:12.556Z,34.24
2022-07-29T12:23:39.900Z,34.25
2022-07-29T12:26:10.696Z,33.85
2022-07-29T12:28:50.580Z,34.74
2022-07-29T12:31:43.873Z,33.79
2022-07-29T12:34:04.638Z,34.62
2022-07-29T12:36:31.438Z,35.24
2022-07-29T12:38:58.763Z,35.18
2022-07-29T12:41:25.533Z,36.03
2022-07-29T12:43:55.734Z,36.05
2022-07-29T12:46:22.686Z,35.78
2022-07-29T12:48:55.851Z,34.18
2022-07-29T12:51:43.441Z,33.85
2022-07-29T12:54:16.473Z,33.05
2022-07-29T12:56:46.684Z,34.30
2022-07-29T12:59:22.314Z,34.37
2022-07-29T13:01:52.711Z,35.47
2022-07-29T13:04:30.256Z,35.25
2022-07-29T13:07:08.456Z,36.52
2022-07-29T13:09:43.775Z,35.41
2022-07-29T13:12:12.341Z,35.11
2022-07-29T13:14:48.241Z,34.62
2022-07-29T13:17:33.665Z,33.24
2022-07-29T13:20:13.356Z,32.72
2022-07-29T13:22:41.219Z,33.00
2022-07-29T13:25:10.362Z,34.65
2022-07-29T13:27:40.531Z,34.10
2022-07-29T13:30:09.833Z,35.59
2022-07-29T13:32:41.914Z,34.98
2022-07-29T13:35:09.517Z,35.21
2022-07-29T13:37:39.621Z,34.34
2022-07-29T13:40:10.313Z,33.46
2022-07-29T13:42:37.267Z,33.31
2022-07-29T13:45:05.727Z,33.04
2022-07-29T13:47:34.358Z,34.19
2022-07-29T13:50:02.079Z,33.79
2022-07-29T13:52:28.957Z,33.55
2022-07-29T13:54:55.611Z,34.38
2022-07-29T13:57:22.199Z,35.57
2022-07-29T13:59:53.728Z,35.78
2022-07-29T14:02:21.484Z,35.28
2022-07-29T14:04:53.611Z,34.21
2022-07-29T14:07:20.309Z,33.45
2022-07-29T14:09:47.010Z,33.88
2022-07-29T14:12:13.686Z,31.57
2022-07-29T14:14:40.725Z,32.68
2022-07-29T14:17:07.918Z,32.63
2022-07-29T14:19:37.466Z,32.80
2022-07-29T14:22:06.211Z,32.57
2022-07-29T14:24:36.412Z,32.34
2022-07-29T14:27:07.489Z,32.05
2022-07-29T14:29:37.065Z,31.80
2022-07-29T14:32:08.203Z,33.53
2022-07-29T14:34:36.354Z,34.87
2022-07-29T14:37:03.905Z,35.63
2022-07-29T14:39:31.970Z,35.88
2022-07-29T14:42:00.061Z,35.04
2022-07-29T14:44:32.150Z,36.08
2022-07-29T14:47:00.845Z,36.45
2022-07-29T14:49:29.534Z,36.51
2022-07-29T14:51:56.475Z,37.32
2022-07-29T14:54:23.723Z,38.11
2022-07-29T14:56:54.641Z,37.60
2022-07-29T14:59:22.244Z,36.23
2022-07-29T15:01:48.894Z,36.36
2022-07-29T15:04:15.756Z,35.31
2022-07-29T15:06:43.045Z,35.06
2022-07-29T15:09:09.840Z,34.81
2022-07-29T15:11:37.875Z,32.94
2022-07-29T15:14:05.582Z,33.10
2022-07-29T15:17:25.540Z,34.25
2022-07-29T15:19:55.498Z,34.05
2022-07-29T15:22:22.174Z,33.93
2022-07-29T15:24:48.862Z,34.49
2022-07-29T15:27:15.595Z,33.70
2022-07-29T15:29:43.098Z,34.24
2022-07-29T15:32:10.677Z,35.86
2022-07-29T15:34:39.046Z,35.53
2022-07-29T15:37:06.459Z,35.57
2022-07-29T15:39:33.371Z,35.15
2022-07-29T15:42:01.531Z,34.89
2022-07-29T15:44:29.133Z,33.86
2022-07-29T15:47:05.998Z,33.42
2022-07-29T15:49:47.214Z,34.59
2022-07-29T15:52:26.133Z,33.65
2022-07-29T15:54:56.775Z,33.36
2022-07-29T15:57:24.072Z,33.82
2022-07-29T15:59:51.065Z,32.53
2022-07-29T16:02:17.938Z,33.11
2022-07-29T16:04:44.812Z,33.53
2022-07-29T16:07:11.853Z,34.35
2022-07-29T16:09:38.833Z,36.01
2022-07-29T16:12:14.710Z,37.41
2022-07-29T16:14:43.105Z,36.18
2022-07-29T16:17:14.473Z,35.83
2022-07-29T16:19:43.198Z,35.19
2022-07-29T16:22:10.502Z,35.22
2022-07-29T16:24:37.194Z,34.77
2022-07-29T16:27:04.865Z,34.66
2022-07-29T16:29:31.899Z,34.87
2022-07-29T16:31:58.709Z,34.32
2022-07-29T16:34:25.533Z,34.14
2022-07-29T16:36:52.316Z,33.14
2022-07-29T16:39:18.943Z,33.38
2022-07-29T16:41:45.734Z,33.14
2022-07-29T16:44:12.731Z,32.59
2022-07-29T16:46:40.863Z,32.97
2022-07-29T16:49:34.591Z,32.89
2022-07-29T16:52:33.843Z,33.11
2022-07-29T16:55:29.568Z,33.89
2022-07-29T17:10:39.244Z,34.10
2022-07-29T17:13:06.932Z,33.28
2022-07-29T17:15:36.663Z,33.93
2022-07-29T17:18:12.596Z,33.94
2022-07-29T17:20:41.986Z,34.55
2022-07-29T17:23:08.784Z,35.02
2022-07-29T17:25:35.565Z,35.83
2022-07-29T17:28:02.748Z,36.72
2022-07-29T17:30:29.951Z,37.53
2022-07-29T17:32:56.801Z,38.94
2022-07-29T17:35:43.184Z,39.87
2022-07-29T17:38:09.965Z,39.85
2022-07-29T17:40:37.385Z,39.79
2022-07-29T17:43:04.844Z,39.91
2022-07-29T17:45:49.334Z,40.64
2022-07-29T17:48:18.980Z,40.91
2022-07-29T17:50:47.073Z,41.25
2022-07-29T17:53:16.039Z,41.13
2022-07-29T17:55:48.993Z,41.21
2022-07-29T17:58:16.278Z,40.39
2022-07-29T18:00:43.314Z,40.89
2022-07-29T18:03:10.271Z,40.90
2022-07-29T18:05:37.722Z,40.69
2022-07-29T18:08:04.658Z,41.46
2022-07-29T18:10:31.611Z,41.74
2022-07-29T18:12:59.685Z,42.82
2022-07-29T18:15:26.366Z,42.58
2022-07-29T18:17:57.519Z,42.69
2022-07-29T18:20:27.722Z,43.04
2022-07-29T18:22:54.598Z,43.06
2022-07-29T18:25:21.350Z,44.20
2022-07-29T18:27:48.179Z,44.10
2022-07-29T18:30:18.061Z,43.81
2022-07-29T18:32:59.100Z,43.76
2022-07-29T18:35:32.324Z,44.41
2022-07-29T18:38:00.743Z,44.62
2022-07-29T18:40:30.389Z,44.74
2022-07-29T18:42:57.227Z,45.13
2022-07-29T18:45:28.201Z,45.23
2022-07-29T18:47:55.083Z,45.43
2022-07-29T18:50:29.164Z,45.62
2022-07-29T18:52:58.927Z,45.82
2022-07-29T18:55:26.529Z,45.99
2022-07-29T18:57:56.095Z,46.28
2022-07-29T19:00:30.140Z,46.35
2022-07-29T19:02:57.236Z,46.41
2022-07-29T19:05:25.742Z,46.61
2022-07-29T19:07:56.162Z,47.08
2022-07-29T19:10:24.130Z,47.34
2022-07-29T19:12:50.764Z,47.61
2022-07-29T19:15:20.281Z,48.07
2022-07-29T19:17:47.997Z,48.66
2022-07-29T19:20:14.655Z,48.55
2022-07-29T19:22:41.277Z,48.71
2022-07-29T19:25:09.424Z,48.72
2022-07-29T19:27:36.054Z,48.99
2022-07-29T19:30:04.666Z,49.26
2022-07-29T19:32:31.478Z,49.39
2022-07-29T19:35:16.619Z,49.20
2022-07-29T19:37:43.691Z,49.45
2022-07-29T19:40:12.253Z,50.15
2022-07-29T19:42:39.193Z,50.11
2022-07-29T19:45:06.663Z,50.33
2022-07-29T19:47:33.446Z,50.88
2022-07-29T19:50:00.749Z,50.60
2022-07-29T19:52:28.272Z,51.03
2022-07-29T19:54:54.946Z,51.14
2022-07-29T19:57:21.879Z,51.50
2022-07-29T19:59:48.578Z,51.46
2022-07-29T20:02:16.512Z,51.73
2022-07-29T20:04:43.577Z,51.60
2022-07-29T20:07:11.647Z,51.68
2022-07-29T20:09:40.754Z,52.33
2022-07-29T20:12:08.969Z,52.43
2022-07-29T20:14:36.041Z,52.24
2022-07-29T20:17:03.104Z,52.14
2022-07-29T20:19:29.935Z,52.70
2022-07-29T20:21:56.859Z,52.29
2022-07-29T20:24:23.685Z,52.63
2022-07-29T20:26:50.964Z,52.47
2022-07-29T20:29:17.709Z,52.70
2022-07-29T20:31:45.742Z,52.96
2022-07-29T20:34:19.150Z,52.73
2022-07-29T20:36:46.157Z,53.06
2022-07-29T20:39:12.858Z,53.56
2022-07-29T20:41:39.722Z,53.38
2022-07-29T20:44:06.861Z,53.48
2022-07-29T20:46:34.642Z,54.10
2022-07-29T20:49:01.419Z,53.46
2022-07-29T20:51:28.225Z,54.35
2022-07-29T20:53:55.977Z,53.70
2022-07-29T20:56:23.117Z,54.41
2022-07-29T20:58:49.787Z,54.28
2022-07-29T21:01:16.692Z,54.06
2022-07-29T21:03:43.618Z,54.25
2022-07-29T21:06:11.467Z,54.86
2022-07-29T21:08:39.183Z,54.61
2022-07-29T21:11:05.896Z,54.42
2022-07-29T21:13:38.229Z,54.43
2022-07-29T21:16:14.739Z,54.85
2022-07-29T21:18:46.757Z,54.62
2022-07-29T21:21:15.481Z,54.90
2022-07-29T21:23:43.896Z,54.91
2022-07-29T21:26:12.928Z,54.51
2022-07-29T21:28:44.020Z,54.69
2022-07-29T21:31:13.025Z,54.61
2022-07-29T21:33:41.910Z,55.43
2022-07-29T21:38:57.094Z,55.68
2022-07-29T21:41:23.731Z,54.97
2022-07-29T21:43:50.420Z,55.80
2022-07-29T21:46:18.238Z,55.97
2022-07-29T21:48:45.147Z,55.94
2022-07-29T21:51:12.126Z,55.87
2022-07-29T21:53:39.042Z,55.79
2022-07-29T21:56:06.643Z,56.07
2022-07-29T21:58:36.995Z,55.97
2022-07-29T22:01:03.832Z,56.11
2022-07-29T22:03:30.518Z,56.35
2022-07-29T22:05:57.288Z,56.41
2022-07-29T22:08:23.900Z,56.52
2022-07-29T22:10:50.530Z,56.49
2022-07-29T22:13:17.238Z,56.58
2022-07-29T22:15:47.055Z,56.31
2022-07-29T22:18:20.621Z,56.65
2022-07-29T22:20:50.405Z,56.90
2022-07-29T22:23:17.112Z,56.55
2022-07-29T22:25:44.177Z,56.93
2022-07-29T22:28:10.844Z,57.32
2022-07-29T22:30:37.735Z,56.86
2022-07-29T22:33:04.402Z,56.93
2022-07-29T22:35:31.175Z,57.23
2022-07-29T22:37:57.915Z,57.19
2022-07-29T22:40:30.675Z,58.05
2022-07-29T22:42:59.391Z,57.65
2022-07-29T22:45:26.001Z,57.52
2022-07-29T22:47:57.888Z,57.50
2022-07-29T22:50:26.453Z,58.07
2022-07-29T22:52:53.063Z,57.54
2022-07-29T22:55:20.220Z,56.72
2022-07-29T22:57:46.877Z,56.63
2022-07-29T23:00:14.339Z,56.59
2022-07-29T23:02:41.675Z,56.98
2022-07-29T23:05:09.196Z,56.78
2022-07-29T23:07:36.274Z,57.01
2022-07-29T23:10:04.005Z,57.49
2022-07-29T23:12:30.655Z,57.07
2022-07-29T23:14:57.451Z,57.45
2022-07-29T23:17:24.293Z,56.99
2022-07-29T23:19:51.005Z,57.14
2022-07-29T23:22:18.538Z,57.02
2022-07-29T23:24:45.535Z,57.24
2022-07-29T23:27:12.144Z,57.16
2022-07-29T23:29:38.941Z,57.32
2022-07-29T23:32:07.072Z,57.42
2022-07-29T23:34:34.805Z,57.29
2022-07-29T23:37:01.703Z,57.65
2022-07-29T23:39:29.950Z,57.80
2022-07-29T23:41:56.734Z,58.14
2022-07-29T23:44:23.781Z,58.74
2022-07-29T23:46:50.550Z,58.53
2022-07-29T23:49:17.482Z,58.35
2022-07-29T23:51:44.389Z,59.05
2022-07-29T23:54:10.976Z,59.22
2022-07-29T23:56:37.747Z,58.62
2022-07-29T23:59:05.970Z,59.38
